createdAt,value
2017-12-11T00:00:48.377Z,94994.42
2017-12-11T00:03:15.757Z,94999.78
2017-12-11T00:05:43.150Z,95011.80
2017-12-11T00:08:10.570Z,95008.41
2017-12-11T00:10:37.979Z,94988.22
2017-12-11T00:13:05.398Z,94981.92
2017-12-11T00:15:32.822Z,94971.12
2017-12-11T00:18:00.270Z,94970.89
2017-12-11T00:20:27.695Z,94971.95
2017-12-11T00:22:55.126Z,94962.59
2017-12-11T00:25:22.524Z,94955.56
2017-12-11T00:27:49.943Z,94938.67
2017-12-11T00:30:17.353Z,94934.70
2017-12-11T00:32:44.806Z,94920.14
2017-12-11T00:35:12.189Z,94917.64
2017-12-11T00:37:39.615Z,94908.93
2017-12-11T00:40:06.997Z,94921.58
2017-12-11T00:42:34.447Z,94918.75
2017-12-11T00:45:02.048Z,94922.69
2017-12-11T00:47:29.865Z,94919.67
2017-12-11T00:49:57.285Z,94946.01
2017-12-11T00:52:24.730Z,94937.41
2017-12-11T00:54:52.198Z,94947.37
2017-12-11T00:57:19.930Z,94949.09
2017-12-11T00:59:47.383Z,94955.69
2017-12-11T01:02:14.815Z,94971.59
2017-12-11T01:04:42.289Z,94987.03
2017-12-11T01:07:09.673Z,94996.81
2017-12-11T01:09:37.103Z,94989.27
2017-12-11T01:12:04.590Z,94988.54
2017-12-11T01:14:32.171Z,95003.91
2017-12-11T01:16:59.932Z,94999.61
2017-12-11T01:19:27.582Z,95003.75
2017-12-11T01:21:54.984Z,95005.53
2017-12-11T01:24:22.410Z,95005.25
2017-12-11T01:26:49.888Z,95011.55
2017-12-11T01:29:17.317Z,95014.24
2017-12-11T01:31:44.718Z,95003.55
2017-12-11T01:34:12.162Z,95018.94
2017-12-11T01:36:39.602Z,95017.27
2017-12-11T01:39:07.031Z,95018.36
2017-12-11T01:41:34.439Z,95007.84
2017-12-11T01:44:01.897Z,94992.64
2017-12-11T01:46:29.411Z,94980.34
2017-12-11T01:48:56.850Z,94977.70
2017-12-11T01:51:24.237Z,94977.05
2017-12-11T01:53:51.662Z,94993.13
2017-12-11T01:56:19.050Z,94994.19
2017-12-11T01:58:46.498Z,94980.39
2017-12-11T02:01:13.900Z,94970.85
2017-12-11T02:03:41.291Z,94968.08
2017-12-11T02:06:08.710Z,94963.86
2017-12-11T02:08:36.100Z,94960.66
2017-12-11T02:11:03.594Z,94957.52
2017-12-11T02:13:31.083Z,94959.77
2017-12-11T02:15:59.086Z,94958.58
2017-12-11T02:18:26.495Z,94972.69
2017-12-11T02:20:53.959Z,94978.66
2017-12-11T02:23:21.426Z,94980.81
2017-12-11T02:25:48.866Z,94983.02
2017-12-11T02:28:16.338Z,94980.20
2017-12-11T02:30:43.786Z,94999.22
2017-12-11T02:33:11.173Z,94997.91
2017-12-11T02:35:38.598Z,94993.87
2017-12-11T02:38:05.995Z,95002.74
2017-12-11T02:40:33.470Z,94997.47
2017-12-11T02:43:01.005Z,95000.38
2017-12-11T02:45:28.612Z,95003.64
2017-12-11T02:47:55.966Z,94992.39
2017-12-11T02:50:23.385Z,94989.88
2017-12-11T02:52:50.780Z,94983.37
2017-12-11T02:55:18.234Z,94980.96
2017-12-11T02:57:45.625Z,94982.58
2017-12-11T03:00:13.015Z,94979.98
2017-12-11T03:02:40.429Z,94977.22
2017-12-11T03:05:07.833Z,94975.95
2017-12-11T03:07:35.251Z,94980.47
2017-12-11T03:10:02.744Z,94967.23
2017-12-11T03:12:30.192Z,94971.16
2017-12-11T03:14:57.607Z,94975.77
2017-12-11T03:17:25.025Z,94970.45
2017-12-11T03:19:52.431Z,94967.59
2017-12-11T03:22:19.859Z,94964.55
2017-12-11T03:24:47.273Z,94964.05
2017-12-11T03:27:14.694Z,94967.98
2017-12-11T03:29:42.096Z,94963.37
2017-12-11T03:32:09.591Z,94948.84
2017-12-11T03:34:36.987Z,94943.89
2017-12-11T03:37:04.419Z,94944.08
2017-12-11T03:39:31.803Z,94929.84
2017-12-11T03:41:59.270Z,94925.69
2017-12-11T03:44:26.666Z,94914.55
2017-12-11T03:46:54.087Z,94914.96
2017-12-11T03:49:21.478Z,94910.38
2017-12-11T03:51:48.905Z,94910.40
2017-12-11T03:54:16.313Z,94906.19
2017-12-11T03:56:43.746Z,94904.47
2017-12-11T03:59:11.225Z,94900.19
2017-12-11T04:01:38.659Z,94893.89
2017-12-11T04:04:06.046Z,94901.35
2017-12-11T04:06:33.535Z,94897.34
2017-12-11T04:09:01.014Z,94890.62
2017-12-11T04:11:28.468Z,94881.31
2017-12-11T04:13:55.890Z,94861.38
2017-12-11T04:16:23.318Z,94866.36
2017-12-11T04:18:50.742Z,94873.05
2017-12-11T04:21:18.134Z,94866.29
2017-12-11T04:23:45.567Z,94864.05
2017-12-11T04:26:12.960Z,94863.25
2017-12-11T04:28:40.377Z,94861.54
2017-12-11T04:31:07.766Z,94857.84
2017-12-11T04:33:35.195Z,94861.15
2017-12-11T04:36:02.638Z,94860.73
2017-12-11T04:38:30.194Z,94849.64
2017-12-11T04:40:57.688Z,94847.25
2017-12-11T04:43:25.177Z,94848.08
2017-12-11T04:45:52.519Z,94840.63
2017-12-11T04:48:19.944Z,94844.60
2017-12-11T04:50:47.364Z,94845.32
2017-12-11T04:53:14.791Z,94839.58
2017-12-11T04:55:42.190Z,94829.99
2017-12-11T04:58:09.613Z,94829.27
2017-12-11T05:00:37.009Z,94831.70
2017-12-11T05:03:04.470Z,94834.52
2017-12-11T05:05:31.864Z,94819.34
2017-12-11T05:07:59.318Z,94810.98
2017-12-11T05:10:26.706Z,94802.66
2017-12-11T05:12:54.102Z,94802.86
2017-12-11T05:15:21.527Z,94794.38
2017-12-11T05:17:48.935Z,94795.60
2017-12-11T05:20:16.374Z,94796.11
2017-12-11T05:22:43.758Z,94807.58
2017-12-11T05:25:11.182Z,94799.55
2017-12-11T05:27:38.586Z,94790.58
2017-12-11T05:30:06.019Z,94782.45
2017-12-11T05:32:33.477Z,94776.66
2017-12-11T05:35:00.895Z,94767.77
2017-12-11T05:37:28.319Z,94775.50
2017-12-11T05:39:55.749Z,94754.32
2017-12-11T05:42:23.143Z,94763.23
2017-12-11T05:44:50.614Z,94769.80
2017-12-11T05:47:18.022Z,94761.82
2017-12-11T05:49:45.450Z,94767.66
2017-12-11T05:52:12.851Z,94755.13
2017-12-11T05:54:40.282Z,94742.22
2017-12-11T05:57:07.693Z,94759.70
2017-12-11T05:59:35.214Z,94748.67
2017-12-11T06:02:02.618Z,94753.48
2017-12-11T06:04:30.155Z,94750.11
2017-12-11T06:06:57.562Z,94747.47
2017-12-11T06:09:25.003Z,94746.31
2017-12-11T06:11:52.395Z,94748.21
2017-12-11T06:14:19.827Z,94738.11
2017-12-11T06:16:47.257Z,94737.20
2017-12-11T06:19:14.685Z,94731.51
2017-12-11T06:21:42.147Z,94717.34
2017-12-11T06:24:09.541Z,94713.52
2017-12-11T06:26:36.994Z,94708.84
2017-12-11T06:29:04.392Z,94721.87
2017-12-11T06:31:31.942Z,94723.02
2017-12-11T06:33:59.374Z,94705.44
2017-12-11T06:36:26.856Z,94696.03
2017-12-11T06:38:54.331Z,94699.54
2017-12-11T06:41:21.786Z,94687.52
2017-12-11T06:43:49.183Z,94680.75
2017-12-11T06:46:16.639Z,94670.27
2017-12-11T06:48:44.098Z,94666.50
2017-12-11T06:51:11.540Z,94641.88
2017-12-11T06:53:38.931Z,94646.31
2017-12-11T06:56:06.369Z,94632.52
2017-12-11T06:58:33.805Z,94645.25
2017-12-11T07:01:01.340Z,94643.82
2017-12-11T07:03:28.854Z,94644.27
2017-12-11T07:05:56.284Z,94660.63
2017-12-11T07:08:23.706Z,94657.73
2017-12-11T07:10:51.237Z,94656.75
2017-12-11T07:13:18.715Z,94646.91
2017-12-11T07:15:46.285Z,94639.73
2017-12-11T07:18:13.677Z,94636.73
2017-12-11T07:20:41.115Z,94636.01
2017-12-11T07:23:08.506Z,94642.08
2017-12-11T07:25:36.055Z,94647.63
2017-12-11T07:28:03.538Z,94656.33
2017-12-11T07:30:30.978Z,94664.52
2017-12-11T07:32:58.539Z,94673.22
2017-12-11T07:35:26.030Z,94680.63
2017-12-11T07:37:53.524Z,94691.91
2017-12-11T07:40:20.994Z,94687.00
2017-12-11T07:42:48.438Z,94688.06
2017-12-11T07:45:15.931Z,94679.22
2017-12-11T07:47:43.564Z,94701.30
2017-12-11T07:50:10.965Z,94692.14
2017-12-11T07:52:38.431Z,94694.31
2017-12-11T07:55:05.824Z,94677.95
2017-12-11T07:57:33.749Z,94676.76
2017-12-11T08:00:06.453Z,94685.30
2017-12-11T08:02:33.951Z,94686.11
2017-12-11T08:05:01.374Z,94694.67
2017-12-11T08:07:28.831Z,94696.33
2017-12-11T08:09:56.257Z,94696.80
2017-12-11T08:12:23.718Z,94691.49
2017-12-11T08:14:51.120Z,94682.84
2017-12-11T08:17:18.746Z,94682.39
2017-12-11T08:19:46.175Z,94670.31
2017-12-11T08:22:13.643Z,94676.64
2017-12-11T08:24:41.034Z,94660.88
2017-12-11T08:27:08.559Z,94644.20
2017-12-11T08:29:35.956Z,94640.84
2017-12-11T08:32:03.392Z,94636.33
2017-12-11T08:34:30.805Z,94623.81
2017-12-11T08:36:58.355Z,94623.62
2017-12-11T08:39:25.819Z,94628.56
2017-12-11T08:41:53.247Z,94625.88
2017-12-11T08:44:20.702Z,94628.02
2017-12-11T08:46:48.116Z,94632.95
2017-12-11T08:49:15.559Z,94623.97
2017-12-11T08:51:42.950Z,94620.19
2017-12-11T08:54:10.386Z,94620.48
2017-12-11T08:56:37.795Z,94611.36
2017-12-11T08:59:05.250Z,94612.56
2017-12-11T09:01:32.697Z,94602.48
2017-12-11T09:04:00.203Z,94605.05
2017-12-11T09:06:27.689Z,94615.50
2017-12-11T09:08:55.130Z,94602.80
2017-12-11T09:11:22.602Z,94612.62
2017-12-11T09:13:50.064Z,94596.03
2017-12-11T09:16:17.513Z,94608.10
2017-12-11T09:18:44.939Z,94591.28
2017-12-11T09:21:12.382Z,94596.75
2017-12-11T09:23:39.810Z,94592.25
2017-12-11T09:26:07.210Z,94582.08
2017-12-11T09:28:34.674Z,94576.05
2017-12-11T09:31:02.130Z,94568.42
2017-12-11T09:33:29.565Z,94556.89
2017-12-11T09:35:56.999Z,94557.07
2017-12-11T09:38:24.434Z,94546.44
2017-12-11T09:40:51.928Z,94529.95
2017-12-11T09:43:19.372Z,94521.48
2017-12-11T09:45:46.773Z,94515.13
2017-12-11T09:48:14.246Z,94498.37
2017-12-11T09:50:41.620Z,94499.63
2017-12-11T09:53:09.046Z,94499.61
2017-12-11T09:55:36.546Z,94487.98
2017-12-11T09:58:03.947Z,94492.16
2017-12-11T10:00:31.419Z,94480.77
2017-12-11T10:02:58.842Z,94481.63
2017-12-11T10:05:26.283Z,94471.11
2017-12-11T10:07:53.678Z,94485.86
2017-12-11T10:10:21.155Z,94486.05
2017-12-11T10:12:48.646Z,94489.46
2017-12-11T10:15:16.105Z,94471.10
2017-12-11T10:17:43.500Z,94476.83
2017-12-11T10:20:10.929Z,94470.61
2017-12-11T10:22:38.326Z,94465.01
2017-12-11T10:25:05.907Z,94460.75
2017-12-11T10:27:33.311Z,94470.95
2017-12-11T10:30:00.778Z,94450.09
2017-12-11T10:32:29.038Z,94453.63
2017-12-11T10:34:56.483Z,94466.25
2017-12-11T10:37:23.950Z,94453.56
2017-12-11T10:39:51.386Z,94468.12
2017-12-11T10:42:18.828Z,94443.21
2017-12-11T10:44:46.295Z,94438.75
2017-12-11T10:47:13.682Z,94419.13
2017-12-11T10:49:41.262Z,94425.32
2017-12-11T10:52:08.660Z,94414.14
2017-12-11T10:54:36.212Z,94398.23
2017-12-11T10:57:03.639Z,94413.05
2017-12-11T10:59:31.192Z,94418.16
2017-12-11T11:01:58.732Z,94426.12
2017-12-11T11:04:26.277Z,94428.17
2017-12-11T11:06:53.734Z,94436.83
2017-12-11T11:09:21.206Z,94415.58
2017-12-11T11:11:48.667Z,94412.53
2017-12-11T11:14:16.058Z,94424.95
2017-12-11T11:16:43.623Z,94426.84
2017-12-11T11:19:10.997Z,94418.48
2017-12-11T11:21:39.332Z,94402.90
2017-12-11T11:24:06.722Z,94394.33
2017-12-11T11:26:34.160Z,94367.64
2017-12-11T11:29:01.654Z,94353.87
2017-12-11T11:31:29.108Z,94332.81
2017-12-11T11:33:56.503Z,94333.36
2017-12-11T11:36:23.942Z,94364.41
2017-12-11T11:38:51.517Z,94368.09
2017-12-11T11:41:18.990Z,94373.46
2017-12-11T11:43:46.394Z,94363.59
2017-12-11T11:46:13.853Z,94353.48
2017-12-11T11:48:41.327Z,94334.59
2017-12-11T11:51:08.781Z,94325.19
2017-12-11T11:53:37.157Z,94339.72
2017-12-11T11:56:04.631Z,94351.04
2017-12-11T11:58:32.040Z,94358.67
2017-12-11T12:00:59.489Z,94362.89
2017-12-11T12:03:26.889Z,94365.82
2017-12-11T12:05:54.306Z,94375.16
2017-12-11T12:08:21.773Z,94385.09
2017-12-11T12:10:49.246Z,94386.73
2017-12-11T12:13:16.739Z,94389.00
2017-12-11T12:15:45.112Z,94412.17
2017-12-11T12:18:12.584Z,94445.77
2017-12-11T12:20:39.969Z,94428.36
2017-12-11T12:23:07.418Z,94439.38
2017-12-11T12:25:34.890Z,94453.80
2017-12-11T12:28:02.498Z,94467.41
2017-12-11T12:30:30.248Z,94455.14
2017-12-11T12:32:58.131Z,94452.52
2017-12-11T12:35:25.557Z,94454.34
2017-12-11T12:37:53.039Z,94462.53
2017-12-11T12:40:20.438Z,94474.97
2017-12-11T12:42:47.931Z,94464.27
2017-12-11T12:45:15.335Z,94462.54
2017-12-11T12:47:42.752Z,94443.44
2017-12-11T12:50:10.148Z,94449.89
2017-12-11T12:52:37.621Z,94464.56
2017-12-11T12:55:05.015Z,94455.68
2017-12-11T12:57:32.454Z,94463.67
2017-12-11T12:59:59.883Z,94465.91
2017-12-11T13:02:27.379Z,94471.64
2017-12-11T13:04:54.775Z,94470.09
2017-12-11T13:07:22.205Z,94486.98
2017-12-11T13:09:49.622Z,94479.59
2017-12-11T13:12:17.068Z,94479.02
2017-12-11T13:14:44.459Z,94487.36
2017-12-11T13:17:12.202Z,94491.48
2017-12-11T13:19:39.610Z,94493.14
2017-12-11T13:22:07.005Z,94496.78
2017-12-11T13:24:34.447Z,94506.52
2017-12-11T13:27:01.847Z,94496.95
2017-12-11T13:29:29.337Z,94496.34
2017-12-11T13:31:56.742Z,94487.91
2017-12-11T13:34:24.182Z,94491.87
2017-12-11T13:36:51.566Z,94505.10
2017-12-11T13:39:19.044Z,94507.34
2017-12-11T13:41:46.474Z,94515.82
2017-12-11T13:44:13.907Z,94513.52
2017-12-11T13:46:41.294Z,94494.89
2017-12-11T13:49:08.727Z,94498.71
2017-12-11T13:51:36.234Z,94503.19
2017-12-11T13:54:03.676Z,94512.45
2017-12-11T13:56:31.177Z,94519.93
2017-12-11T13:58:58.672Z,94536.77
2017-12-11T14:01:26.067Z,94534.41
2017-12-11T14:03:53.584Z,94552.77
2017-12-11T14:06:21.058Z,94558.02
2017-12-11T14:08:48.522Z,94567.16
2017-12-11T14:11:15.931Z,94576.58
2017-12-11T14:13:44.814Z,94602.39
2017-12-11T14:16:12.213Z,94595.89
2017-12-11T14:18:39.660Z,94606.16
2017-12-11T14:21:07.064Z,94624.95
2017-12-11T14:23:34.579Z,94644.32
2017-12-11T14:26:02.065Z,94660.36
2017-12-11T14:28:29.685Z,94664.61
2017-12-11T14:30:57.104Z,94687.75
2017-12-11T14:33:24.492Z,94692.15
2017-12-11T14:35:51.963Z,94705.38
2017-12-11T14:38:19.378Z,94705.74
2017-12-11T14:40:46.810Z,94711.49
2017-12-11T14:43:14.198Z,94718.31
2017-12-11T14:45:41.630Z,94724.98
2017-12-11T14:48:09.029Z,94727.08
2017-12-11T14:50:36.459Z,94733.63
2017-12-11T14:53:03.924Z,94735.92
2017-12-11T14:55:31.363Z,94730.57
2017-12-11T14:57:58.930Z,94732.91
2017-12-11T15:00:26.424Z,94744.92
2017-12-11T15:02:53.811Z,94752.83
2017-12-11T15:05:21.247Z,94745.38
2017-12-11T15:07:48.655Z,94748.16
2017-12-11T15:10:16.105Z,94746.70
2017-12-11T15:12:43.566Z,94747.76
2017-12-11T15:15:11.006Z,94763.12
2017-12-11T15:17:38.398Z,94752.44
2017-12-11T15:20:05.983Z,94766.30
2017-12-11T15:22:33.478Z,94784.95
2017-12-11T15:25:00.923Z,94781.47
2017-12-11T15:27:28.379Z,94768.03
2017-12-11T15:29:55.823Z,94777.47
2017-12-11T15:32:23.334Z,94778.06
2017-12-11T15:34:50.800Z,94778.73
2017-12-11T15:37:18.207Z,94778.02
2017-12-11T15:39:45.716Z,94775.81
2017-12-11T15:42:13.139Z,94779.13
2017-12-11T15:44:40.685Z,94781.13
2017-12-11T15:47:08.075Z,94787.52
2017-12-11T15:49:35.540Z,94793.98
2017-12-11T15:52:03.006Z,94785.83
2017-12-11T15:54:30.511Z,94785.48
2017-12-11T15:56:58.075Z,94782.43
2017-12-11T15:59:25.472Z,94782.26
2017-12-11T16:01:52.932Z,94785.50
2017-12-11T16:04:20.326Z,94800.63
2017-12-11T16:06:47.813Z,94795.81
2017-12-11T16:09:15.293Z,94791.73
2017-12-11T16:11:42.843Z,94777.58
2017-12-11T16:14:10.258Z,94793.38
2017-12-11T16:16:37.740Z,94801.91
2017-12-11T16:19:05.137Z,94795.37
2017-12-11T16:21:32.570Z,94798.34
2017-12-11T16:24:00.012Z,94806.47
2017-12-11T16:26:27.481Z,94803.16
2017-12-11T16:28:54.887Z,94802.17
2017-12-11T16:31:26.020Z,94803.91
2017-12-11T16:33:58.563Z,94795.59
2017-12-11T16:36:31.298Z,94803.86
2017-12-11T16:39:04.024Z,94798.77
2017-12-11T16:41:36.058Z,94795.39
2017-12-11T16:44:08.242Z,94799.27
2017-12-11T16:46:40.415Z,94808.24
2017-12-11T16:49:13.100Z,94800.31
2017-12-11T16:51:45.807Z,94796.23
2017-12-11T16:54:17.884Z,94798.27
2017-12-11T16:56:45.414Z,94791.94
2017-12-11T16:59:12.894Z,94790.95
2017-12-11T17:01:40.595Z,94785.28
2017-12-11T17:04:07.987Z,94791.21
2017-12-11T17:06:35.546Z,94793.73
2017-12-11T17:09:02.983Z,94793.41
2017-12-11T17:11:30.451Z,94798.23
2017-12-11T17:13:57.984Z,94811.11
2017-12-11T17:16:25.558Z,94818.16
2017-12-11T17:18:52.988Z,94832.84
2017-12-11T17:21:20.418Z,94822.85
2017-12-11T17:23:47.935Z,94826.37
2017-12-11T17:26:15.365Z,94818.41
2017-12-11T17:28:42.845Z,94825.32
2017-12-11T17:31:10.243Z,94815.72
2017-12-11T17:33:37.817Z,94824.44
2017-12-11T17:36:05.220Z,94834.67
2017-12-11T17:38:32.703Z,94835.29
2017-12-11T17:41:00.123Z,94842.48
2017-12-11T17:43:27.711Z,94840.09
2017-12-11T17:45:55.144Z,94849.63
2017-12-11T17:48:22.558Z,94851.71
2017-12-11T17:50:50.002Z,94835.07
2017-12-11T17:53:17.557Z,94837.78
2017-12-11T17:55:44.963Z,94841.41
2017-12-11T17:58:12.499Z,94847.70
2017-12-11T18:00:39.968Z,94858.21
2017-12-11T18:03:07.406Z,94867.12
2017-12-11T18:05:34.815Z,94861.98
2017-12-11T18:08:02.278Z,94865.52
2017-12-11T18:10:29.783Z,94878.08
2017-12-11T18:12:57.304Z,94873.84
2017-12-11T18:15:24.725Z,94874.38
2017-12-11T18:17:52.171Z,94893.13
2017-12-11T18:20:19.558Z,94900.92
2017-12-11T18:22:47.013Z,94905.86
2017-12-11T18:25:14.397Z,94900.05
2017-12-11T18:27:41.810Z,94898.34
2017-12-11T18:30:09.277Z,94900.72
2017-12-11T18:32:36.889Z,94913.88
2017-12-11T18:35:04.310Z,94902.69
2017-12-11T18:37:31.726Z,94911.22
2017-12-11T18:39:59.220Z,94901.23
2017-12-11T18:42:26.670Z,94890.92
2017-12-11T18:44:54.132Z,94902.48
2017-12-11T18:47:21.522Z,94907.20
2017-12-11T18:49:49.071Z,94901.59
2017-12-11T18:52:16.567Z,94896.97
2017-12-11T18:54:44.024Z,94902.74
2017-12-11T18:57:11.419Z,94881.57
2017-12-11T18:59:38.855Z,94873.33
2017-12-11T19:02:06.258Z,94858.59
2017-12-11T19:04:33.711Z,94853.05
2017-12-11T19:07:01.115Z,94857.34
2017-12-11T19:09:28.606Z,94846.97
2017-12-11T19:11:55.993Z,94870.55
2017-12-11T19:14:23.461Z,94866.63
2017-12-11T19:16:50.848Z,94854.88
2017-12-11T19:19:18.284Z,94846.78
2017-12-11T19:21:45.696Z,94854.09
2017-12-11T19:24:13.130Z,94843.73
2017-12-11T19:26:40.525Z,94839.98
2017-12-11T19:29:07.985Z,94846.88
2017-12-11T19:31:35.374Z,94872.59
2017-12-11T19:34:02.774Z,94881.30
2017-12-11T19:36:30.226Z,94887.94
2017-12-11T19:38:57.654Z,94889.21
2017-12-11T19:41:25.106Z,94893.69
2017-12-11T19:43:52.487Z,94878.66
2017-12-11T19:46:19.929Z,94880.50
2017-12-11T19:48:47.334Z,94895.67
2017-12-11T19:51:14.799Z,94882.42
2017-12-11T19:53:42.202Z,94883.94
2017-12-11T19:56:09.642Z,94897.00
2017-12-11T19:58:37.112Z,94908.81
2017-12-11T20:01:04.546Z,94895.77
2017-12-11T20:03:31.955Z,94907.46
2017-12-11T20:05:59.411Z,94908.72
2017-12-11T20:08:26.854Z,94903.24
2017-12-11T20:10:54.299Z,94907.92
2017-12-11T20:13:21.763Z,94901.17
2017-12-11T20:15:49.199Z,94907.46
2017-12-11T20:18:16.599Z,94905.27
2017-12-11T20:20:44.039Z,94913.55
2017-12-11T20:23:11.442Z,94907.05
2017-12-11T20:25:38.962Z,94917.70
2017-12-11T20:28:06.356Z,94912.40
2017-12-11T20:30:33.899Z,94911.34
2017-12-11T20:33:01.311Z,94913.60
2017-12-11T20:35:28.882Z,94918.01
2017-12-11T20:37:56.266Z,94910.48
2017-12-11T20:40:23.695Z,94920.97
2017-12-11T20:42:51.140Z,94912.74
2017-12-11T20:45:18.567Z,94923.91
2017-12-11T20:47:46.094Z,94919.02
2017-12-11T20:50:13.487Z,94923.29
2017-12-11T20:52:41.033Z,94929.89
2017-12-11T20:55:08.468Z,94937.70
2017-12-11T20:57:35.940Z,94940.45
2017-12-11T21:00:03.350Z,94943.42
2017-12-11T21:02:30.838Z,94946.55
2017-12-11T21:04:58.323Z,94952.02
2017-12-11T21:07:25.776Z,94945.11
2017-12-11T21:09:53.166Z,94948.05
2017-12-11T21:12:20.622Z,94963.50
2017-12-11T21:14:48.050Z,94971.05
2017-12-11T21:17:15.668Z,94982.45
2017-12-11T21:19:43.103Z,94968.88
2017-12-11T21:22:10.589Z,94991.05
2017-12-11T21:24:37.974Z,94985.84
2017-12-11T21:27:05.452Z,94986.70
2017-12-11T21:29:32.922Z,95005.23
2017-12-11T21:32:00.405Z,95008.48
2017-12-11T21:34:27.837Z,95018.97
2017-12-11T21:36:55.270Z,95024.11
2017-12-11T21:39:22.754Z,95017.52
2017-12-11T21:41:50.232Z,95029.60
2017-12-11T21:44:17.627Z,95037.06
2017-12-11T21:46:45.078Z,95041.83
2017-12-11T21:49:12.558Z,95040.98
2017-12-11T21:51:39.978Z,95045.49
2017-12-11T21:54:07.519Z,95047.72
2017-12-11T21:56:34.931Z,95052.87
2017-12-11T21:59:02.402Z,95059.95
2017-12-11T22:01:29.954Z,95057.06
2017-12-11T22:03:57.467Z,95066.77
2017-12-11T22:06:24.926Z,95075.92
2017-12-11T22:08:52.404Z,95086.27
2017-12-11T22:11:19.839Z,95093.50
2017-12-11T22:13:47.513Z,95094.78
2017-12-11T22:16:14.914Z,95097.95
2017-12-11T22:18:42.393Z,95116.48
2017-12-11T22:21:09.795Z,95117.88
2017-12-11T22:23:37.251Z,95116.88
2017-12-11T22:26:04.647Z,95135.93
2017-12-11T22:28:32.113Z,95137.81
2017-12-11T22:30:59.658Z,95148.38
2017-12-11T22:33:27.142Z,95149.40
2017-12-11T22:35:54.556Z,95143.72
2017-12-11T22:38:21.979Z,95137.91
2017-12-11T22:40:49.371Z,95136.58
2017-12-11T22:43:16.822Z,95147.55
2017-12-11T22:45:44.218Z,95153.44
2017-12-11T22:48:11.690Z,95163.95
2017-12-11T22:50:39.089Z,95170.28
2017-12-11T22:53:06.509Z,95181.38
2017-12-11T22:55:34.033Z,95183.36
2017-12-11T22:58:01.511Z,95194.90
2017-12-11T23:00:30.544Z,95199.91
2017-12-11T23:02:58.026Z,95202.37
2017-12-11T23:05:25.450Z,95197.71
2017-12-11T23:07:52.906Z,95211.97
2017-12-11T23:10:20.370Z,95211.27
2017-12-11T23:12:47.884Z,95206.55
2017-12-11T23:15:15.313Z,95232.92
2017-12-11T23:17:42.699Z,95231.73
2017-12-11T23:20:10.145Z,95237.73
2017-12-11T23:22:37.641Z,95227.47
2017-12-11T23:25:05.071Z,95245.16
2017-12-11T23:27:32.475Z,95251.98
2017-12-11T23:30:00.859Z,95242.69
2017-12-11T23:32:28.271Z,95255.28
2017-12-11T23:34:56.721Z,95252.59
2017-12-11T23:37:24.251Z,95251.57
2017-12-11T23:39:51.677Z,95247.93
2017-12-11T23:42:19.102Z,95253.70
2017-12-11T23:44:46.557Z,95252.17
2017-12-11T23:47:13.946Z,95249.30
2017-12-11T23:49:41.407Z,95266.59
2017-12-11T23:52:08.815Z,95270.02
2017-12-11T23:54:36.243Z,95278.13
2017-12-11T23:57:03.646Z,95293.73
2017-12-11T23:59:31.219Z,95299.45
